Main page
METAR-TAF:

METAR-TAF

Airports :

Mécheria, Algeria

Mécheria Airport

latitude: 34-56N, longitude: 000-26W, elevation: 1149 m

Current weather observation

The report was made 4 hours and 48 minutes ago, at 23:00 UTC
Calm wind
Temperature 18°C
Humidity 59%
Pressure 1027 hPa
Visibility 10 km or more
no clouds below 1500 m and no cumulonimbus

METAR: DAAY 192300Z 00000KT CAVOK 18/10 Q1027

Time: 04:48 (03:48 UTC)

Forecast

The report was made 10 hours and 48 minutes ago, at 17:00 UTC
Forecast valid from 19 at 18 UTC to 20 at 03 UTC
Wind 10 kt from the Northwest
Visibility 10 km or more
no clouds below 1500 m and no cumulonimbus
Becoming
from 19 at 22 UTC to 19 at 24 UTC
Wind 5 kt from the East/Northeast
Becoming
from 20 at 01 UTC to 20 at 03 UTC
Wind 2 kt from variable directions
Visibility 10 km or more
Few clouds at a height of 1000 ft

TAF: DAAY 191700Z 1918/2003 31010KT CAVOK BECMG 1922/1924 07005KT BECMG 2001/2003 VRB02KT 9999 FEW010

Weather observations and forecasts of more than 4000 airports (METAR and TAF reports).

The available stations are represented by yellow and red dots on the map.

Hover mouse over dot to see the name of the station.

Then click to see weather observations and forecasts.

To change the map : click on the green buttons with a black cross to zoom in, on the green button with a dash to zoom out, or on the green arrows for adjacent maps.


METAR-TAF: